Grand Gulf, Mississippi
Current Conditions -  °F | °C
As of 10:15 AM on Tuesday 21 Oct 2014 (Local Time) from KHEZ Reporting Station
Clear Clear  
Wind Chill: 66°   Ceiling: Unl
Heat Index: 66°   Visibility: 10mi
Dew Point: 54°   Wind: 3mph
Humidity: 64%   Direction: 30°NNE
Pressure: 30.13"   Gusts: NA
Location:  31.918°N, 91.0399°W
Report Text: KHEZ 211515Z AUTO 03003KT 10SM CLR 19/12 A3013 RMK AO1
Loading
Personal Weather Stations






























Interactive Weather Map
Tropical Storm Tracking
New forecast layout! Learn more

10-Day Weather Forecast

Advertisements
Track Severe Weather on mobile